Portada
METAR-TAF:

METAR-TAF

Aeroports :

Aeroport Internacional Amata Kabua

Majuro, Illes Marshall

latitud: 07-04N, longitud: 171-17E, altitud: 2 m

Observació

L'informe es va fer fa 12 hores i 48 minuts, a les 16:59 UTC
Vent 8 kt del Est/Nord-Est
Temperatura 27°C
Humitat 84%
Pressió 1009 hPa
Visibilitat: 24.1 km
Núvols disperses a una alçada de 1400 ft, Cumulus congestus.
Cel ennuvolat a una alçada de 4500 ft
Cel cobert a una alçada de 11000 ft

METAR: PKMJ 301659Z 07008KT 15SM SCT014TCU BKN045 OVC110 27/24 A2980 RMK TCU ALQDS LAST

Hora: 17:47 (05:47 UTC)

Pronòstic

L'informe es va fer fa 5 hores i 58 minuts, a les 23:49 UTC
Pronòstic vàlid del 01 a les 00 UTC al 01 a les 24 UTC
Vent 15 kt del Est
Visibilitat: 10 km
Núvols disperses a una alçada de 1500 ft
Cel ennuvolat a una alçada de 5000 ft
Cel ennuvolat a una alçada de 12000 ft
xàfecs en les proximitats

TAF: PKMJ 302349Z 0100/0124 10015KT P6SM VCSH SCT015 BKN050 BKN120

Observacions i pronòstics meteorològics de més de 4000 aeroports (METAR i TAF).

Les estacions disponibles són els punts grocs i vermells al mapa.

Posi el ratolí al punt desitjat per veure el nom de l'estació.

Feu clic per veure les observacions i els pronòstics meteorològics.

Per canviar el mapa: feu clic els botons verds amb una creu de color negre per apropar; al botó verd amb un guió per allunyar la imatge; o en les fletxes verdes per a mapes adjacents.


METAR-TAF: